sensor_id;sensor_type;location;lat;lon;timestamp;pressure;altitude;pressure_sealevel;temperature
39959;BMP280;25639;53.634;9.880;2022-10-31T00:00:25;154758.59;;;9.67
39959;BMP280;25639;53.634;9.880;2022-10-31T00:02:50;154745.88;;;9.62
39959;BMP280;25639;53.634;9.880;2022-10-31T00:05:15;154747.16;;;9.63
39959;BMP280;25639;53.634;9.880;2022-10-31T00:07:40;154743.31;;;9.61
39959;BMP280;25639;53.634;9.880;2022-10-31T00:10:05;154747.16;;;9.63
39959;BMP280;25639;53.634;9.880;2022-10-31T00:12:31;154743.31;;;9.61
39959;BMP280;25639;53.634;9.880;2022-10-31T00:14:56;154743.31;;;9.61
39959;BMP280;25639;53.634;9.880;2022-10-31T00:17:21;154743.31;;;9.61
39959;BMP280;25639;53.634;9.880;2022-10-31T00:19:46;154745.88;;;9.62
39959;BMP280;25639;53.634;9.880;2022-10-31T00:22:12;154744.59;;;9.62
39959;BMP280;25639;53.634;9.880;2022-10-31T00:24:37;154748.41;;;9.63
39959;BMP280;25639;53.634;9.880;2022-10-31T00:27:02;154757.34;;;9.67
39959;BMP280;25639;53.634;9.880;2022-10-31T00:29:27;154753.50;;;9.65
39959;BMP280;25639;53.634;9.880;2022-10-31T00:31:52;154763.72;;;9.69
39959;BMP280;25639;53.634;9.880;2022-10-31T00:34:18;154761.16;;;9.68
39959;BMP280;25639;53.634;9.880;2022-10-31T00:36:43;154757.34;;;9.67
39959;BMP280;25639;53.634;9.880;2022-10-31T00:39:08;154771.34;;;9.72
39959;BMP280;25639;53.634;9.880;2022-10-31T00:41:33;154789.19;;;9.80
39959;BMP280;25639;53.634;9.880;2022-10-31T00:43:59;154787.94;;;9.79
39959;BMP280;25639;53.634;9.880;2022-10-31T00:46:24;154787.94;;;9.79
39959;BMP280;25639;53.634;9.880;2022-10-31T00:48:49;154791.75;;;9.81
39959;BMP280;25639;53.634;9.880;2022-10-31T00:51:14;154789.19;;;9.80
39959;BMP280;25639;53.634;9.880;2022-10-31T00:53:39;154781.56;;;9.77
39959;BMP280;25639;53.634;9.880;2022-10-31T00:56:05;154782.84;;;9.77
39959;BMP280;25639;53.634;9.880;2022-10-31T00:58:30;154779.00;;;9.76
39959;BMP280;25639;53.634;9.880;2022-10-31T01:00:55;154771.34;;;9.72
39959;BMP280;25639;53.634;9.880;2022-10-31T01:03:21;154770.09;;;9.72
39959;BMP280;25639;53.634;9.880;2022-10-31T01:05:54;154772.66;;;9.73
39959;BMP280;25639;53.634;9.880;2022-10-31T01:08:19;154772.66;;;9.73
39959;BMP280;25639;53.634;9.880;2022-10-31T01:10:45;154782.84;;;9.77
39959;BMP280;25639;53.634;9.880;2022-10-31T01:13:10;154787.94;;;9.79
39959;BMP280;25639;53.634;9.880;2022-10-31T01:15:35;154796.84;;;9.83
39959;BMP280;25639;53.634;9.880;2022-10-31T01:18:00;154793.03;;;9.81
39959;BMP280;25639;53.634;9.880;2022-10-31T01:20:25;154795.59;;;9.82
39959;BMP280;25639;53.634;9.880;2022-10-31T01:22:50;154814.69;;;9.90
39959;BMP280;25639;53.634;9.880;2022-10-31T01:25:16;154817.25;;;9.91
39959;BMP280;25639;53.634;9.880;2022-10-31T01:27:41;154840.19;;;10.00
39959;BMP280;25639;53.634;9.880;2022-10-31T01:30:06;154872.06;;;10.13
39959;BMP280;25639;53.634;9.880;2022-10-31T01:32:31;154902.69;;;10.25
39959;BMP280;25639;53.634;9.880;2022-10-31T01:34:57;154920.56;;;10.33
39959;BMP280;25639;53.634;9.880;2022-10-31T01:37:22;154932.03;;;10.37
39959;BMP280;25639;53.634;9.880;2022-10-31T01:39:47;154943.50;;;10.42
39959;BMP280;25639;53.634;9.880;2022-10-31T01:42:15;154957.53;;;10.47
39959;BMP280;25639;53.634;9.880;2022-10-31T01:47:08;155012.41;;;10.70
39959;BMP280;25639;53.634;9.880;2022-10-31T01:49:41;155009.84;;;10.68
39959;BMP280;25639;53.634;9.880;2022-10-31T01:52:11;155031.53;;;10.77
39959;BMP280;25639;53.634;9.880;2022-10-31T01:54:39;155055.75;;;10.87
39959;BMP280;25639;53.634;9.880;2022-10-31T01:57:05;155069.75;;;10.93
39959;BMP280;25639;53.634;9.880;2022-10-31T01:59:31;155059.56;;;10.88
39959;BMP280;25639;53.634;9.880;2022-10-31T02:01:57;155062.16;;;10.90
39959;BMP280;25639;53.634;9.880;2022-10-31T02:04:23;155064.66;;;10.91
39959;BMP280;25639;53.634;9.880;2022-10-31T02:06:51;155069.75;;;10.93
39959;BMP280;25639;53.634;9.880;2022-10-31T02:09:19;155076.16;;;10.95
39959;BMP280;25639;53.634;9.880;2022-10-31T02:11:48;155088.94;;;11.00
39959;BMP280;25639;53.634;9.880;2022-10-31T02:14:14;155091.47;;;11.01
39959;BMP280;25639;53.634;9.880;2022-10-31T02:16:39;155092.75;;;11.02
39959;BMP280;25639;53.634;9.880;2022-10-31T02:19:05;155088.94;;;11.00
39959;BMP280;25639;53.634;9.880;2022-10-31T02:24:00;155092.75;;;11.02
39959;BMP280;25639;53.634;9.880;2022-10-31T02:34:47;155108.06;;;11.08
39959;BMP280;25639;53.634;9.880;2022-10-31T02:37:27;155102.97;;;11.06
39959;BMP280;25639;53.634;9.880;2022-10-31T02:42:31;155116.97;;;11.12
39959;BMP280;25639;53.634;9.880;2022-10-31T02:47:42;155132.31;;;11.18
39959;BMP280;25639;53.634;9.880;2022-10-31T02:50:14;155132.31;;;11.18
39959;BMP280;25639;53.634;9.880;2022-10-31T02:52:41;155151.44;;;11.25
39959;BMP280;25639;53.634;9.880;2022-10-31T02:55:39;155152.72;;;11.26
39959;BMP280;25639;53.634;9.880;2022-10-31T03:03:33;155155.28;;;11.27
39959;BMP280;25639;53.634;9.880;2022-10-31T03:06:20;155159.09;;;11.29
39959;BMP280;25639;53.634;9.880;2022-10-31T03:11:12;155160.38;;;11.29
39959;BMP280;25639;53.634;9.880;2022-10-31T03:16:10;155169.31;;;11.33
39959;BMP280;25639;53.634;9.880;2022-10-31T03:18:48;155168.03;;;11.32
39959;BMP280;25639;53.634;9.880;2022-10-31T03:21:20;155159.09;;;11.29
39959;BMP280;25639;53.634;9.880;2022-10-31T03:23:47;155150.19;;;11.25
39959;BMP280;25639;53.634;9.880;2022-10-31T03:26:15;155147.59;;;11.24
39959;BMP280;25639;53.634;9.880;2022-10-31T03:28:51;155141.25;;;11.21
39959;BMP280;25639;53.634;9.880;2022-10-31T03:31:18;155132.31;;;11.18
39959;BMP280;25639;53.634;9.880;2022-10-31T03:33:46;155134.84;;;11.19
39959;BMP280;25639;53.634;9.880;2022-10-31T03:36:13;155147.59;;;11.24
39959;BMP280;25639;53.634;9.880;2022-10-31T03:38:39;155142.50;;;11.22
39959;BMP280;25639;53.634;9.880;2022-10-31T03:41:06;155152.72;;;11.26
39959;BMP280;25639;53.634;9.880;2022-10-31T03:43:36;155165.47;;;11.31
39959;BMP280;25639;53.634;9.880;2022-10-31T03:46:03;155182.06;;;11.38
39959;BMP280;25639;53.634;9.880;2022-10-31T03:48:29;155173.13;;;11.34
39959;BMP280;25639;53.634;9.880;2022-10-31T03:50:57;155170.56;;;11.33
39959;BMP280;25639;53.634;9.880;2022-10-31T03:53:26;155164.22;;;11.31
39959;BMP280;25639;53.634;9.880;2022-10-31T03:55:59;155160.38;;;11.29
39959;BMP280;25639;53.634;9.880;2022-10-31T03:58:29;155165.47;;;11.31
39959;BMP280;25639;53.634;9.880;2022-10-31T04:00:58;155171.81;;;11.34
39959;BMP280;25639;53.634;9.880;2022-10-31T04:03:26;155169.31;;;11.33
39959;BMP280;25639;53.634;9.880;2022-10-31T04:05:53;155166.72;;;11.32
39959;BMP280;25639;53.634;9.880;2022-10-31T04:08:20;155169.31;;;11.33
39959;BMP280;25639;53.634;9.880;2022-10-31T04:10:48;155164.22;;;11.31
39959;BMP280;25639;53.634;9.880;2022-10-31T04:13:14;155164.22;;;11.31
39959;BMP280;25639;53.634;9.880;2022-10-31T04:15:42;155153.97;;;11.26
39959;BMP280;25639;53.634;9.880;2022-10-31T04:18:08;155159.09;;;11.29
39959;BMP280;25639;53.634;9.880;2022-10-31T04:20:37;155161.63;;;11.30
39959;BMP280;25639;53.634;9.880;2022-10-31T04:23:03;155160.38;;;11.29
39959;BMP280;25639;53.634;9.880;2022-10-31T04:25:30;155156.53;;;11.28
39959;BMP280;25639;53.634;9.880;2022-10-31T04:27:55;155168.03;;;11.32
39959;BMP280;25639;53.634;9.880;2022-10-31T04:30:20;155178.22;;;11.36
39959;BMP280;25639;53.634;9.880;2022-10-31T04:32:46;155179.50;;;11.37
39959;BMP280;25639;53.634;9.880;2022-10-31T04:35:11;155191.00;;;11.41
39959;BMP280;25639;53.634;9.880;2022-10-31T04:37:36;155194.84;;;11.43
39959;BMP280;25639;53.634;9.880;2022-10-31T04:40:01;155216.47;;;11.52
39959;BMP280;25639;53.634;9.880;2022-10-31T04:42:30;155216.47;;;11.52
39959;BMP280;25639;53.634;9.880;2022-10-31T04:44:55;155224.16;;;11.55
39959;BMP280;25639;53.634;9.880;2022-10-31T04:47:20;155228.00;;;11.56
39959;BMP280;25639;53.634;9.880;2022-10-31T04:49:46;155245.84;;;11.63
39959;BMP280;25639;53.634;9.880;2022-10-31T04:52:11;155248.44;;;11.64
39959;BMP280;25639;53.634;9.880;2022-10-31T04:54:36;155239.50;;;11.61
39959;BMP280;25639;53.634;9.880;2022-10-31T04:57:01;155244.59;;;11.63
39959;BMP280;25639;53.634;9.880;2022-10-31T04:59:26;155271.41;;;11.74
39959;BMP280;25639;53.634;9.880;2022-10-31T05:01:52;155262.47;;;11.70
39959;BMP280;25639;53.634;9.880;2022-10-31T05:04:17;155257.38;;;11.68
39959;BMP280;25639;53.634;9.880;2022-10-31T05:06:42;155261.19;;;11.70
39959;BMP280;25639;53.634;9.880;2022-10-31T05:09:07;155259.88;;;11.69
39959;BMP280;25639;53.634;9.880;2022-10-31T05:11:32;155270.13;;;11.73
39959;BMP280;25639;53.634;9.880;2022-10-31T05:13:57;155270.13;;;11.73
39959;BMP280;25639;53.634;9.880;2022-10-31T05:16:23;155273.91;;;11.75
39959;BMP280;25639;53.634;9.880;2022-10-31T05:18:48;155281.59;;;11.78
39959;BMP280;25639;53.634;9.880;2022-10-31T05:21:13;155286.69;;;11.80
39959;BMP280;25639;53.634;9.880;2022-10-31T05:23:38;155288.00;;;11.80
39959;BMP280;25639;53.634;9.880;2022-10-31T05:26:03;155298.19;;;11.85
39959;BMP280;25639;53.634;9.880;2022-10-31T05:28:29;155307.13;;;11.88
39959;BMP280;25639;53.634;9.880;2022-10-31T05:30:54;155313.53;;;11.91
39959;BMP280;25639;53.634;9.880;2022-10-31T05:33:19;155310.97;;;11.90
39959;BMP280;25639;53.634;9.880;2022-10-31T05:35:44;155323.78;;;11.95
39959;BMP280;25639;53.634;9.880;2022-10-31T05:38:09;155316.13;;;11.92
39959;BMP280;25639;53.634;9.880;2022-10-31T05:40:34;155317.38;;;11.92
39959;BMP280;25639;53.634;9.880;2022-10-31T05:43:00;155318.63;;;11.93
39959;BMP280;25639;53.634;9.880;2022-10-31T05:45:25;155322.47;;;11.94
39959;BMP280;25639;53.634;9.880;2022-10-31T05:47:51;155325.06;;;11.95
39959;BMP280;25639;53.634;9.880;2022-10-31T05:50:16;155323.78;;;11.95
39959;BMP280;25639;53.634;9.880;2022-10-31T05:52:42;155322.47;;;11.94
39959;BMP280;25639;53.634;9.880;2022-10-31T05:55:07;155331.41;;;11.98
39959;BMP280;25639;53.634;9.880;2022-10-31T05:57:32;155323.78;;;11.95
39959;BMP280;25639;53.634;9.880;2022-10-31T05:59:58;155335.25;;;11.99
39959;BMP280;25639;53.634;9.880;2022-10-31T06:02:23;155340.34;;;12.01
39959;BMP280;25639;53.634;9.880;2022-10-31T06:04:49;155342.91;;;12.02
39959;BMP280;25639;53.634;9.880;2022-10-31T06:07:14;155345.44;;;12.04
39959;BMP280;25639;53.634;9.880;2022-10-31T06:09:39;155342.91;;;12.02
39959;BMP280;25639;53.634;9.880;2022-10-31T06:12:04;155345.44;;;12.04
39959;BMP280;25639;53.634;9.880;2022-10-31T06:14:29;155354.38;;;12.07
39959;BMP280;25639;53.634;9.880;2022-10-31T06:16:55;155350.59;;;12.06
39959;BMP280;25639;53.634;9.880;2022-10-31T06:19:20;155342.91;;;12.02
39959;BMP280;25639;53.634;9.880;2022-10-31T06:21:45;155341.66;;;12.02
39959;BMP280;25639;53.634;9.880;2022-10-31T06:24:10;155345.44;;;12.04
39959;BMP280;25639;53.634;9.880;2022-10-31T06:26:36;155339.09;;;12.01
39959;BMP280;25639;53.634;9.880;2022-10-31T06:29:01;155344.19;;;12.03
39959;BMP280;25639;53.634;9.880;2022-10-31T06:31:26;155356.94;;;12.08
39959;BMP280;25639;53.634;9.880;2022-10-31T06:33:51;155359.53;;;12.09
39959;BMP280;25639;53.634;9.880;2022-10-31T06:36:16;155364.63;;;12.11
39959;BMP280;25639;53.634;9.880;2022-10-31T06:38:42;155373.56;;;12.15
39959;BMP280;25639;53.634;9.880;2022-10-31T06:41:07;155373.56;;;12.15
39959;BMP280;25639;53.634;9.880;2022-10-31T06:43:32;155377.41;;;12.16
39959;BMP280;25639;53.634;9.880;2022-10-31T06:45:57;155374.81;;;12.15
39959;BMP280;25639;53.634;9.880;2022-10-31T06:48:26;155374.81;;;12.15
39959;BMP280;25639;53.634;9.880;2022-10-31T06:50:51;155381.22;;;12.18
39959;BMP280;25639;53.634;9.880;2022-10-31T06:53:16;155379.91;;;12.17
39959;BMP280;25639;53.634;9.880;2022-10-31T06:55:42;155374.81;;;12.15
39959;BMP280;25639;53.634;9.880;2022-10-31T06:58:08;155374.81;;;12.15
39959;BMP280;25639;53.634;9.880;2022-10-31T07:00:34;155372.31;;;12.14
39959;BMP280;25639;53.634;9.880;2022-10-31T07:03:00;155367.16;;;12.12
39959;BMP280;25639;53.634;9.880;2022-10-31T07:05:26;155374.81;;;12.15
39959;BMP280;25639;53.634;9.880;2022-10-31T07:07:55;155386.34;;;12.20
39959;BMP280;25639;53.634;9.880;2022-10-31T07:10:20;155381.22;;;12.18
39959;BMP280;25639;53.634;9.880;2022-10-31T07:12:46;155373.56;;;12.15
39959;BMP280;25639;53.634;9.880;2022-10-31T07:15:11;155379.91;;;12.17
39959;BMP280;25639;53.634;9.880;2022-10-31T07:17:36;155376.09;;;12.16
39959;BMP280;25639;53.634;9.880;2022-10-31T07:20:01;155383.75;;;12.19
39959;BMP280;25639;53.634;9.880;2022-10-31T07:22:34;155368.47;;;12.13
39959;BMP280;25639;53.634;9.880;2022-10-31T07:24:59;155378.66;;;12.17
39959;BMP280;25639;53.634;9.880;2022-10-31T07:27:24;155376.09;;;12.16
39959;BMP280;25639;53.634;9.880;2022-10-31T07:29:49;155367.16;;;12.12
39959;BMP280;25639;53.634;9.880;2022-10-31T07:32:14;155369.72;;;12.13
39959;BMP280;25639;53.634;9.880;2022-10-31T07:34:40;155363.34;;;12.11
39959;BMP280;25639;53.634;9.880;2022-10-31T07:37:05;155365.88;;;12.12
39959;BMP280;25639;53.634;9.880;2022-10-31T07:39:30;155367.16;;;12.12
39959;BMP280;25639;53.634;9.880;2022-10-31T07:41:57;155368.47;;;12.13
39959;BMP280;25639;53.634;9.880;2022-10-31T07:44:22;155372.31;;;12.14
39959;BMP280;25639;53.634;9.880;2022-10-31T07:46:48;155354.38;;;12.07
39959;BMP280;25639;53.634;9.880;2022-10-31T07:49:13;155355.69;;;12.08
39959;BMP280;25639;53.634;9.880;2022-10-31T07:51:38;155360.78;;;12.10
39959;BMP280;25639;53.634;9.880;2022-10-31T07:54:04;155360.78;;;12.10
39959;BMP280;25639;53.634;9.880;2022-10-31T07:56:29;155376.09;;;12.16
39959;BMP280;25639;53.634;9.880;2022-10-31T07:58:54;155368.47;;;12.13
39959;BMP280;25639;53.634;9.880;2022-10-31T08:01:19;155373.56;;;12.15
39959;BMP280;25639;53.634;9.880;2022-10-31T08:03:44;155381.22;;;12.18
39959;BMP280;25639;53.634;9.880;2022-10-31T08:06:09;155373.56;;;12.15
39959;BMP280;25639;53.634;9.880;2022-10-31T08:08:35;155345.44;;;12.04
39959;BMP280;25639;53.634;9.880;2022-10-31T08:11:00;155356.94;;;12.08
39959;BMP280;25639;53.634;9.880;2022-10-31T08:13:25;155363.34;;;12.11
39959;BMP280;25639;53.634;9.880;2022-10-31T08:15:50;155354.38;;;12.07
39959;BMP280;25639;53.634;9.880;2022-10-31T08:18:17;155344.19;;;12.03
39959;BMP280;25639;53.634;9.880;2022-10-31T08:20:42;155319.94;;;11.93
39959;BMP280;25639;53.634;9.880;2022-10-31T08:23:08;155326.31;;;11.96
39959;BMP280;25639;53.634;9.880;2022-10-31T08:25:34;155319.94;;;11.93
39959;BMP280;25639;53.634;9.880;2022-10-31T08:27:59;155332.72;;;11.98
39959;BMP280;25639;53.634;9.880;2022-10-31T08:30:26;155316.13;;;11.92
39959;BMP280;25639;53.634;9.880;2022-10-31T08:33:05;155331.41;;;11.98
39959;BMP280;25639;53.634;9.880;2022-10-31T08:35:31;155345.44;;;12.04
39959;BMP280;25639;53.634;9.880;2022-10-31T08:37:56;155355.69;;;12.08
39959;BMP280;25639;53.634;9.880;2022-10-31T08:40:22;155344.19;;;12.03
39959;BMP280;25639;53.634;9.880;2022-10-31T08:42:54;155358.22;;;12.09
39959;BMP280;25639;53.634;9.880;2022-10-31T08:45:20;155415.66;;;12.32
39959;BMP280;25639;53.634;9.880;2022-10-31T08:47:45;155433.53;;;12.39
39959;BMP280;25639;53.634;9.880;2022-10-31T08:50:10;155404.22;;;12.27
39959;BMP280;25639;53.634;9.880;2022-10-31T08:52:35;155422.06;;;12.34
39959;BMP280;25639;53.634;9.880;2022-10-31T08:55:00;155424.59;;;12.35
39959;BMP280;25639;53.634;9.880;2022-10-31T08:57:25;155399.09;;;12.25
39959;BMP280;25639;53.634;9.880;2022-10-31T08:59:51;155452.72;;;12.47
39959;BMP280;25639;53.634;9.880;2022-10-31T09:02:16;155531.88;;;12.78
39959;BMP280;25639;53.634;9.880;2022-10-31T09:04:41;155478.22;;;12.57
39959;BMP280;25639;53.634;9.880;2022-10-31T09:07:06;155391.44;;;12.22
39959;BMP280;25639;53.634;9.880;2022-10-31T09:09:32;155446.31;;;12.44
39959;BMP280;25639;53.634;9.880;2022-10-31T09:11:57;155492.31;;;12.63
39959;BMP280;25639;53.634;9.880;2022-10-31T09:14:23;155484.66;;;12.59
39959;BMP280;25639;53.634;9.880;2022-10-31T09:16:48;155452.72;;;12.47
39959;BMP280;25639;53.634;9.880;2022-10-31T09:19:13;155402.91;;;12.27
39959;BMP280;25639;53.634;9.880;2022-10-31T09:21:38;155446.31;;;12.44
39959;BMP280;25639;53.634;9.880;2022-10-31T09:24:04;155441.22;;;12.42
39959;BMP280;25639;53.634;9.880;2022-10-31T09:26:29;155424.59;;;12.35
39959;BMP280;25639;53.634;9.880;2022-10-31T09:28:55;155461.66;;;12.50
39959;BMP280;25639;53.634;9.880;2022-10-31T09:31:24;155491.00;;;12.62
39959;BMP280;25639;53.634;9.880;2022-10-31T09:33:49;155478.22;;;12.57
39959;BMP280;25639;53.634;9.880;2022-10-31T09:36:14;155439.97;;;12.42
39959;BMP280;25639;53.634;9.880;2022-10-31T09:38:40;155469.28;;;12.53
39959;BMP280;25639;53.634;9.880;2022-10-31T09:44:04;155498.69;;;12.65
39959;BMP280;25639;53.634;9.880;2022-10-31T09:51:30;155508.88;;;12.69
39959;BMP280;25639;53.634;9.880;2022-10-31T09:54:13;155476.97;;;12.56
39959;BMP280;25639;53.634;9.880;2022-10-31T09:56:39;155516.56;;;12.72
39959;BMP280;25639;53.634;9.880;2022-10-31T09:59:06;155585.50;;;13.00
39959;BMP280;25639;53.634;9.880;2022-10-31T10:06:42;155595.75;;;13.04
39959;BMP280;25639;53.634;9.880;2022-10-31T10:09:10;155577.88;;;12.97
39959;BMP280;25639;53.634;9.880;2022-10-31T10:14:22;155499.94;;;12.66
39959;BMP280;25639;53.634;9.880;2022-10-31T10:22:02;155565.09;;;12.92
39959;BMP280;25639;53.634;9.880;2022-10-31T10:27:01;155632.78;;;13.19
39959;BMP280;25639;53.634;9.880;2022-10-31T10:29:42;155620.00;;;13.14
39959;BMP280;25639;53.634;9.880;2022-10-31T10:32:25;155603.38;;;13.07
39959;BMP280;25639;53.634;9.880;2022-10-31T10:34:53;155591.91;;;13.03
39959;BMP280;25639;53.634;9.880;2022-10-31T10:37:28;155547.22;;;12.85
39959;BMP280;25639;53.634;9.880;2022-10-31T10:39:56;155522.94;;;12.75
39959;BMP280;25639;53.634;9.880;2022-10-31T10:42:24;155576.56;;;12.96
39959;BMP280;25639;53.634;9.880;2022-10-31T10:45:16;155611.06;;;13.10
39959;BMP280;25639;53.634;9.880;2022-10-31T10:48:27;155607.22;;;13.09
39959;BMP280;25639;53.634;9.880;2022-10-31T10:50:48;155586.81;;;13.01
39959;BMP280;25639;53.634;9.880;2022-10-31T10:58:14;155548.47;;;12.85
39959;BMP280;25639;53.634;9.880;2022-10-31T11:00:44;155590.66;;;13.02
39959;BMP280;25639;53.634;9.880;2022-10-31T11:03:14;155531.88;;;12.78
39959;BMP280;25639;53.634;9.880;2022-10-31T11:05:47;155566.38;;;12.92
39959;BMP280;25639;53.634;9.880;2022-10-31T11:08:23;155501.25;;;12.66
39959;BMP280;25639;53.634;9.880;2022-10-31T11:10:56;155609.81;;;13.10
39959;BMP280;25639;53.634;9.880;2022-10-31T11:13:22;155597.03;;;13.05
39959;BMP280;25639;53.634;9.880;2022-10-31T11:15:50;155572.78;;;12.95
39959;BMP280;25639;53.634;9.880;2022-10-31T11:18:19;155618.75;;;13.13
39959;BMP280;25639;53.634;9.880;2022-10-31T11:20:50;155600.88;;;13.06
39959;BMP280;25639;53.634;9.880;2022-10-31T11:23:17;155570.19;;;12.94
39959;BMP280;25639;53.634;9.880;2022-10-31T11:26:18;155531.88;;;12.78
39959;BMP280;25639;53.634;9.880;2022-10-31T11:28:34;155543.38;;;12.83
39959;BMP280;25639;53.634;9.880;2022-10-31T11:31:01;155542.13;;;12.83
39959;BMP280;25639;53.634;9.880;2022-10-31T11:33:39;155572.78;;;12.95
39959;BMP280;25639;53.634;9.880;2022-10-31T11:36:16;155649.41;;;13.26
39959;BMP280;25639;53.634;9.880;2022-10-31T11:38:43;155626.41;;;13.16
39959;BMP280;25639;53.634;9.880;2022-10-31T11:43:37;155585.50;;;13.00
39959;BMP280;25639;53.634;9.880;2022-10-31T11:46:09;155630.25;;;13.18
39959;BMP280;25639;53.634;9.880;2022-10-31T11:48:35;155654.50;;;13.28
39959;BMP280;25639;53.634;9.880;2022-10-31T11:51:01;155644.31;;;13.24
39959;BMP280;25639;53.634;9.880;2022-10-31T11:53:27;155675.03;;;13.36
39959;BMP280;25639;53.634;9.880;2022-10-31T11:56:01;155658.34;;;13.29
39959;BMP280;25639;53.634;9.880;2022-10-31T11:58:27;155631.53;;;13.19
39959;BMP280;25639;53.634;9.880;2022-10-31T12:00:54;155686.50;;;13.41
39959;BMP280;25639;53.634;9.880;2022-10-31T12:05:52;155719.75;;;13.54
39959;BMP280;25639;53.634;9.880;2022-10-31T12:08:20;155718.44;;;13.53
39959;BMP280;25639;53.634;9.880;2022-10-31T12:13:22;155789.97;;;13.82
39959;BMP280;25639;53.634;9.880;2022-10-31T12:15:55;155823.22;;;13.96
39959;BMP280;25639;53.634;9.880;2022-10-31T12:18:27;155824.50;;;13.96
39959;BMP280;25639;53.634;9.880;2022-10-31T12:21:03;155880.75;;;14.19
39959;BMP280;25639;53.634;9.880;2022-10-31T12:23:41;155869.22;;;14.14
39959;BMP280;25639;53.634;9.880;2022-10-31T12:26:21;155867.97;;;14.14
39959;BMP280;25639;53.634;9.880;2022-10-31T12:31:23;155873.06;;;14.16
39959;BMP280;25639;53.634;9.880;2022-10-31T12:44:36;155926.75;;;14.37
39959;BMP280;25639;53.634;9.880;2022-10-31T12:55:03;155844.97;;;14.04
39959;BMP280;25639;53.634;9.880;2022-10-31T12:57:42;155820.66;;;13.95
39959;BMP280;25639;53.634;9.880;2022-10-31T13:00:11;155818.13;;;13.94
39959;BMP280;25639;53.634;9.880;2022-10-31T13:02:56;155767.00;;;13.73
39959;BMP280;25639;53.634;9.880;2022-10-31T13:10:43;155685.22;;;13.40
39959;BMP280;25639;53.634;9.880;2022-10-31T13:15:46;155704.38;;;13.48
39959;BMP280;25639;53.634;9.880;2022-10-31T13:18:14;155749.09;;;13.66
39959;BMP280;25639;53.634;9.880;2022-10-31T13:20:45;155769.56;;;13.74
39959;BMP280;25639;53.634;9.880;2022-10-31T13:23:27;155738.88;;;13.62
39959;BMP280;25639;53.634;9.880;2022-10-31T13:25:54;155685.22;;;13.40
39959;BMP280;25639;53.634;9.880;2022-10-31T13:28:33;155646.84;;;13.25
39959;BMP280;25639;53.634;9.880;2022-10-31T13:31:00;155613.63;;;13.11
39959;BMP280;25639;53.634;9.880;2022-10-31T13:33:27;155617.47;;;13.13
39959;BMP280;25639;53.634;9.880;2022-10-31T13:35:59;155618.75;;;13.13
39959;BMP280;25639;53.634;9.880;2022-10-31T13:44:14;155719.75;;;13.54
39959;BMP280;25639;53.634;9.880;2022-10-31T13:46:41;155760.63;;;13.70
39959;BMP280;25639;53.634;9.880;2022-10-31T13:51:51;155671.19;;;13.34
39959;BMP280;25639;53.634;9.880;2022-10-31T13:54:20;155682.66;;;13.39
39959;BMP280;25639;53.634;9.880;2022-10-31T13:56:50;155700.53;;;13.46
39959;BMP280;25639;53.634;9.880;2022-10-31T13:59:22;155700.53;;;13.46
39959;BMP280;25639;53.634;9.880;2022-10-31T14:01:49;155698.00;;;13.45
39959;BMP280;25639;53.634;9.880;2022-10-31T14:04:26;155712.06;;;13.51
39959;BMP280;25639;53.634;9.880;2022-10-31T14:06:54;155752.94;;;13.67
39959;BMP280;25639;53.634;9.880;2022-10-31T14:09:29;155744.00;;;13.64
39959;BMP280;25639;53.634;9.880;2022-10-31T14:11:56;155765.72;;;13.72
39959;BMP280;25639;53.634;9.880;2022-10-31T14:14:23;155761.88;;;13.71
39959;BMP280;25639;53.634;9.880;2022-10-31T14:16:55;155744.00;;;13.64
39959;BMP280;25639;53.634;9.880;2022-10-31T14:19:21;155717.16;;;13.53
39959;BMP280;25639;53.634;9.880;2022-10-31T14:21:47;155704.38;;;13.48
39959;BMP280;25639;53.634;9.880;2022-10-31T14:26:51;155718.44;;;13.53
39959;BMP280;25639;53.634;9.880;2022-10-31T14:31:43;155682.66;;;13.39
39959;BMP280;25639;53.634;9.880;2022-10-31T14:34:21;155691.59;;;13.43
39959;BMP280;25639;53.634;9.880;2022-10-31T14:36:50;155700.53;;;13.46
39959;BMP280;25639;53.634;9.880;2022-10-31T14:39:21;155699.28;;;13.46
39959;BMP280;25639;53.634;9.880;2022-10-31T14:41:53;155653.25;;;13.27
39959;BMP280;25639;53.634;9.880;2022-10-31T14:44:29;155669.88;;;13.34
39959;BMP280;25639;53.634;9.880;2022-10-31T14:52:16;155663.50;;;13.31
39959;BMP280;25639;53.634;9.880;2022-10-31T14:54:46;155646.84;;;13.25
39959;BMP280;25639;53.634;9.880;2022-10-31T14:57:34;155616.16;;;13.12
39959;BMP280;25639;53.634;9.880;2022-10-31T15:00:03;155607.22;;;13.09
39959;BMP280;25639;53.634;9.880;2022-10-31T15:05:05;155618.75;;;13.13
39959;BMP280;25639;53.634;9.880;2022-10-31T15:07:31;155646.84;;;13.25
39959;BMP280;25639;53.634;9.880;2022-10-31T15:10:00;155631.53;;;13.19
39959;BMP280;25639;53.634;9.880;2022-10-31T15:12:26;155618.75;;;13.13
39959;BMP280;25639;53.634;9.880;2022-10-31T15:14:52;155597.03;;;13.05
39959;BMP280;25639;53.634;9.880;2022-10-31T15:17:17;155640.47;;;13.22
39959;BMP280;25639;53.634;9.880;2022-10-31T15:19:42;155621.31;;;13.14
39959;BMP280;25639;53.634;9.880;2022-10-31T15:22:14;155598.28;;;13.05
39959;BMP280;25639;53.634;9.880;2022-10-31T15:24:40;155589.34;;;13.02
39959;BMP280;25639;53.634;9.880;2022-10-31T15:27:10;155607.22;;;13.09
39959;BMP280;25639;53.634;9.880;2022-10-31T15:29:36;155599.59;;;13.06
39959;BMP280;25639;53.634;9.880;2022-10-31T15:32:22;155595.75;;;13.04
39959;BMP280;25639;53.634;9.880;2022-10-31T15:34:48;155580.41;;;12.98
39959;BMP280;25639;53.634;9.880;2022-10-31T15:37:14;155556.16;;;12.88
39959;BMP280;25639;53.634;9.880;2022-10-31T15:39:40;155577.88;;;12.97
39959;BMP280;25639;53.634;9.880;2022-10-31T15:44:44;155510.19;;;12.70
39959;BMP280;25639;53.634;9.880;2022-10-31T15:47:15;155525.50;;;12.76
39959;BMP280;25639;53.634;9.880;2022-10-31T15:54:54;155508.88;;;12.69
39959;BMP280;25639;53.634;9.880;2022-10-31T15:57:21;155503.78;;;12.67
39959;BMP280;25639;53.634;9.880;2022-10-31T15:59:47;155478.22;;;12.57
39959;BMP280;25639;53.634;9.880;2022-10-31T16:02:13;155488.47;;;12.61